sensor_id;sensor_type;location;lat;lon;timestamp;P1;durP1;ratioP1;P2;durP2;ratioP2
64678;SDS011;51094;53.864;27.676;2023-04-29T00:01:41;2.95;;;2.85;;
64678;SDS011;51094;53.864;27.676;2023-04-29T00:04:08;3.20;;;3.10;;
64678;SDS011;51094;53.864;27.676;2023-04-29T00:06:35;3.40;;;3.30;;
64678;SDS011;51094;53.864;27.676;2023-04-29T00:09:02;3.25;;;3.15;;
64678;SDS011;51094;53.864;27.676;2023-04-29T00:11:30;3.50;;;3.40;;
64678;SDS011;51094;53.864;27.676;2023-04-29T00:13:56;3.20;;;3.10;;
64678;SDS011;51094;53.864;27.676;2023-04-29T00:16:23;3.60;;;3.50;;
64678;SDS011;51094;53.864;27.676;2023-04-29T00:18:50;3.55;;;3.45;;
64678;SDS011;51094;53.864;27.676;2023-04-29T00:21:17;3.40;;;3.30;;
64678;SDS011;51094;53.864;27.676;2023-04-29T00:23:45;3.90;;;3.80;;
64678;SDS011;51094;53.864;27.676;2023-04-29T00:26:12;3.50;;;3.40;;
64678;SDS011;51094;53.864;27.676;2023-04-29T00:28:43;3.30;;;3.20;;
64678;SDS011;51094;53.864;27.676;2023-04-29T00:31:10;3.97;;;3.88;;
64678;SDS011;51094;53.864;27.676;2023-04-29T00:33:37;3.60;;;3.50;;
64678;SDS011;51094;53.864;27.676;2023-04-29T00:36:08;3.85;;;3.67;;
64678;SDS011;51094;53.864;27.676;2023-04-29T00:38:35;3.80;;;3.70;;
64678;SDS011;51094;53.864;27.676;2023-04-29T00:41:02;3.92;;;3.83;;
64678;SDS011;51094;53.864;27.676;2023-04-29T00:43:29;3.50;;;3.40;;
64678;SDS011;51094;53.864;27.676;2023-04-29T00:45:56;3.80;;;3.70;;
64678;SDS011;51094;53.864;27.676;2023-04-29T00:48:24;3.30;;;3.20;;
64678;SDS011;51094;53.864;27.676;2023-04-29T00:50:52;3.28;;;3.17;;
64678;SDS011;51094;53.864;27.676;2023-04-29T00:53:18;3.60;;;3.50;;
64678;SDS011;51094;53.864;27.676;2023-04-29T00:55:48;3.67;;;3.58;;
64678;SDS011;51094;53.864;27.676;2023-04-29T00:58:17;3.53;;;3.42;;
64678;SDS011;51094;53.864;27.676;2023-04-29T01:00:45;3.70;;;3.60;;
64678;SDS011;51094;53.864;27.676;2023-04-29T01:03:13;3.35;;;3.25;;
64678;SDS011;51094;53.864;27.676;2023-04-29T01:05:40;3.58;;;3.47;;
64678;SDS011;51094;53.864;27.676;2023-04-29T01:08:25;3.72;;;3.63;;
64678;SDS011;51094;53.864;27.676;2023-04-29T01:11:07;3.45;;;3.35;;
64678;SDS011;51094;53.864;27.676;2023-04-29T01:13:38;3.58;;;3.47;;
64678;SDS011;51094;53.864;27.676;2023-04-29T01:16:10;3.38;;;3.28;;
64678;SDS011;51094;53.864;27.676;2023-04-29T01:18:54;3.70;;;3.60;;
64678;SDS011;51094;53.864;27.676;2023-04-29T01:21:28;3.50;;;3.40;;
64678;SDS011;51094;53.864;27.676;2023-04-29T01:23:57;3.40;;;3.30;;
64678;SDS011;51094;53.864;27.676;2023-04-29T01:26:29;3.33;;;3.22;;
64678;SDS011;51094;53.864;27.676;2023-04-29T01:29:16;3.40;;;3.30;;
64678;SDS011;51094;53.864;27.676;2023-04-29T01:32:03;3.42;;;3.33;;
64678;SDS011;51094;53.864;27.676;2023-04-29T01:34:41;3.50;;;3.40;;
64678;SDS011;51094;53.864;27.676;2023-04-29T01:42:43;3.60;;;3.50;;
64678;SDS011;51094;53.864;27.676;2023-04-29T01:45:16;3.25;;;3.15;;
64678;SDS011;51094;53.864;27.676;2023-04-29T01:47:45;3.47;;;3.38;;
64678;SDS011;51094;53.864;27.676;2023-04-29T01:50:13;3.28;;;3.17;;
64678;SDS011;51094;53.864;27.676;2023-04-29T01:52:40;3.42;;;3.33;;
64678;SDS011;51094;53.864;27.676;2023-04-29T01:55:07;3.42;;;3.33;;
64678;SDS011;51094;53.864;27.676;2023-04-29T01:57:41;3.42;;;3.33;;
64678;SDS011;51094;53.864;27.676;2023-04-29T02:00:39;3.20;;;3.10;;
64678;SDS011;51094;53.864;27.676;2023-04-29T02:03:10;3.10;;;3.00;;
64678;SDS011;51094;53.864;27.676;2023-04-29T02:05:40;3.40;;;3.30;;
64678;SDS011;51094;53.864;27.676;2023-04-29T02:08:07;3.08;;;2.97;;
64678;SDS011;51094;53.864;27.676;2023-04-29T02:10:39;3.20;;;3.10;;
64678;SDS011;51094;53.864;27.676;2023-04-29T02:13:24;3.30;;;3.20;;
64678;SDS011;51094;53.864;27.676;2023-04-29T02:15:50;3.20;;;3.10;;
64678;SDS011;51094;53.864;27.676;2023-04-29T02:18:17;3.33;;;3.22;;
64678;SDS011;51094;53.864;27.676;2023-04-29T02:20:46;3.60;;;3.50;;
64678;SDS011;51094;53.864;27.676;2023-04-29T02:23:16;3.05;;;2.95;;
64678;SDS011;51094;53.864;27.676;2023-04-29T02:25:42;3.22;;;3.13;;
64678;SDS011;51094;53.864;27.676;2023-04-29T02:28:09;3.28;;;3.17;;
64678;SDS011;51094;53.864;27.676;2023-04-29T02:30:38;3.40;;;3.30;;
64678;SDS011;51094;53.864;27.676;2023-04-29T02:33:05;3.40;;;3.30;;
64678;SDS011;51094;53.864;27.676;2023-04-29T02:35:34;3.35;;;3.25;;
64678;SDS011;51094;53.864;27.676;2023-04-29T02:38:01;3.33;;;3.22;;
64678;SDS011;51094;53.864;27.676;2023-04-29T02:40:28;3.13;;;3.03;;
64678;SDS011;51094;53.864;27.676;2023-04-29T02:42:55;3.22;;;3.13;;
64678;SDS011;51094;53.864;27.676;2023-04-29T02:45:21;3.13;;;3.03;;
64678;SDS011;51094;53.864;27.676;2023-04-29T02:47:48;3.15;;;3.05;;
64678;SDS011;51094;53.864;27.676;2023-04-29T02:50:15;3.30;;;3.20;;
64678;SDS011;51094;53.864;27.676;2023-04-29T02:52:43;3.35;;;3.25;;
64678;SDS011;51094;53.864;27.676;2023-04-29T02:55:09;3.47;;;3.38;;
64678;SDS011;51094;53.864;27.676;2023-04-29T02:57:36;3.58;;;3.47;;
64678;SDS011;51094;53.864;27.676;2023-04-29T03:00:06;3.85;;;3.75;;
64678;SDS011;51094;53.864;27.676;2023-04-29T03:02:34;3.40;;;3.30;;
64678;SDS011;51094;53.864;27.676;2023-04-29T03:05:04;3.28;;;3.17;;
64678;SDS011;51094;53.864;27.676;2023-04-29T03:07:31;3.28;;;3.17;;
64678;SDS011;51094;53.864;27.676;2023-04-29T03:10:01;3.50;;;3.40;;
64678;SDS011;51094;53.864;27.676;2023-04-29T03:15:00;3.70;;;3.60;;
64678;SDS011;51094;53.864;27.676;2023-04-29T03:17:30;3.38;;;3.30;;
64678;SDS011;51094;53.864;27.676;2023-04-29T03:19:57;3.40;;;3.30;;
64678;SDS011;51094;53.864;27.676;2023-04-29T03:22:24;3.42;;;3.33;;
64678;SDS011;51094;53.864;27.676;2023-04-29T03:24:52;3.78;;;3.67;;
64678;SDS011;51094;53.864;27.676;2023-04-29T03:27:19;3.50;;;3.40;;
64678;SDS011;51094;53.864;27.676;2023-04-29T03:29:47;3.50;;;3.40;;
64678;SDS011;51094;53.864;27.676;2023-04-29T03:32:14;3.50;;;3.40;;
64678;SDS011;51094;53.864;27.676;2023-04-29T03:34:43;3.90;;;3.80;;
64678;SDS011;51094;53.864;27.676;2023-04-29T03:37:36;3.30;;;3.20;;
64678;SDS011;51094;53.864;27.676;2023-04-29T03:40:22;3.47;;;3.38;;
64678;SDS011;51094;53.864;27.676;2023-04-29T03:42:49;3.35;;;3.25;;
64678;SDS011;51094;53.864;27.676;2023-04-29T03:45:17;3.80;;;3.70;;
64678;SDS011;51094;53.864;27.676;2023-04-29T03:47:44;3.85;;;3.75;;
64678;SDS011;51094;53.864;27.676;2023-04-29T03:50:11;3.80;;;3.70;;
64678;SDS011;51094;53.864;27.676;2023-04-29T03:52:46;3.97;;;3.88;;
64678;SDS011;51094;53.864;27.676;2023-04-29T03:55:20;4.05;;;3.95;;
64678;SDS011;51094;53.864;27.676;2023-04-29T03:57:49;4.63;;;4.43;;
64678;SDS011;51094;53.864;27.676;2023-04-29T04:00:20;6.30;;;6.20;;
64678;SDS011;51094;53.864;27.676;2023-04-29T04:02:56;5.30;;;5.20;;
64678;SDS011;51094;53.864;27.676;2023-04-29T04:05:24;4.75;;;4.63;;
64678;SDS011;51094;53.864;27.676;2023-04-29T04:08:03;5.22;;;5.10;;
64678;SDS011;51094;53.864;27.676;2023-04-29T04:10:35;4.88;;;4.68;;
64678;SDS011;51094;53.864;27.676;2023-04-29T04:13:09;5.05;;;4.85;;
64678;SDS011;51094;53.864;27.676;2023-04-29T04:15:36;4.97;;;4.88;;
64678;SDS011;51094;53.864;27.676;2023-04-29T04:18:03;5.38;;;5.18;;
64678;SDS011;51094;53.864;27.676;2023-04-29T04:20:38;5.30;;;5.10;;
64678;SDS011;51094;53.864;27.676;2023-04-29T04:23:08;5.70;;;5.57;;
64678;SDS011;51094;53.864;27.676;2023-04-29T04:25:35;5.38;;;5.28;;
64678;SDS011;51094;53.864;27.676;2023-04-29T04:28:18;4.97;;;4.88;;
64678;SDS011;51094;53.864;27.676;2023-04-29T04:30:57;4.88;;;4.78;;
64678;SDS011;51094;53.864;27.676;2023-04-29T04:33:24;5.18;;;5.07;;
64678;SDS011;51094;53.864;27.676;2023-04-29T04:35:51;5.05;;;4.90;;
64678;SDS011;51094;53.864;27.676;2023-04-29T04:38:18;5.50;;;5.30;;
64678;SDS011;51094;53.864;27.676;2023-04-29T04:40:48;5.82;;;5.63;;
64678;SDS011;51094;53.864;27.676;2023-04-29T04:43:29;4.32;;;4.22;;
64678;SDS011;51094;53.864;27.676;2023-04-29T04:45:56;4.63;;;4.53;;
64678;SDS011;51094;53.864;27.676;2023-04-29T04:48:23;5.30;;;5.10;;
64678;SDS011;51094;53.864;27.676;2023-04-29T04:50:51;4.90;;;4.70;;
64678;SDS011;51094;53.864;27.676;2023-04-29T04:53:18;5.35;;;5.13;;
64678;SDS011;51094;53.864;27.676;2023-04-29T04:55:50;5.35;;;5.25;;
64678;SDS011;51094;53.864;27.676;2023-04-29T04:58:19;5.65;;;5.45;;
64678;SDS011;51094;53.864;27.676;2023-04-29T05:00:50;6.28;;;6.07;;
64678;SDS011;51094;53.864;27.676;2023-04-29T05:03:18;5.43;;;5.32;;
64678;SDS011;51094;53.864;27.676;2023-04-29T05:05:53;6.85;;;6.65;;
64678;SDS011;51094;53.864;27.676;2023-04-29T05:08:24;6.10;;;5.90;;
64678;SDS011;51094;53.864;27.676;2023-04-29T05:10:55;6.30;;;6.10;;
64678;SDS011;51094;53.864;27.676;2023-04-29T05:13:23;6.40;;;6.20;;
64678;SDS011;51094;53.864;27.676;2023-04-29T05:15:53;6.18;;;5.90;;
64678;SDS011;51094;53.864;27.676;2023-04-29T05:18:24;6.30;;;6.10;;
64678;SDS011;51094;53.864;27.676;2023-04-29T05:20:51;6.40;;;6.20;;
64678;SDS011;51094;53.864;27.676;2023-04-29T05:23:18;6.72;;;6.53;;
64678;SDS011;51094;53.864;27.676;2023-04-29T05:25:48;7.13;;;6.82;;
64678;SDS011;51094;53.864;27.676;2023-04-29T05:28:16;6.43;;;6.22;;
64678;SDS011;51094;53.864;27.676;2023-04-29T05:30:44;5.20;;;5.00;;
64678;SDS011;51094;53.864;27.676;2023-04-29T05:33:13;4.90;;;4.70;;
64678;SDS011;51094;53.864;27.676;2023-04-29T05:35:41;4.13;;;4.03;;
64678;SDS011;51094;53.864;27.676;2023-04-29T05:38:11;4.60;;;4.40;;
64678;SDS011;51094;53.864;27.676;2023-04-29T05:40:48;3.67;;;3.58;;
64678;SDS011;51094;53.864;27.676;2023-04-29T05:43:18;3.70;;;3.50;;
64678;SDS011;51094;53.864;27.676;2023-04-29T05:45:46;3.15;;;3.05;;
64678;SDS011;51094;53.864;27.676;2023-04-29T05:48:13;2.90;;;2.80;;
64678;SDS011;51094;53.864;27.676;2023-04-29T05:50:44;3.03;;;2.92;;
64678;SDS011;51094;53.864;27.676;2023-04-29T05:53:11;2.58;;;2.50;;
64678;SDS011;51094;53.864;27.676;2023-04-29T05:58:11;2.35;;;2.30;;
64678;SDS011;51094;53.864;27.676;2023-04-29T06:00:51;2.10;;;2.00;;
64678;SDS011;51094;53.864;27.676;2023-04-29T06:03:23;1.77;;;1.77;;
64678;SDS011;51094;53.864;27.676;2023-04-29T06:06:20;1.00;;;1.00;;
64678;SDS011;51094;53.864;27.676;2023-04-29T06:09:01;1.20;;;1.20;;
64678;SDS011;51094;53.864;27.676;2023-04-29T06:11:36;1.00;;;1.00;;
64678;SDS011;51094;53.864;27.676;2023-04-29T06:14:04;1.60;;;1.50;;
64678;SDS011;51094;53.864;27.676;2023-04-29T06:16:31;0.95;;;0.95;;
64678;SDS011;51094;53.864;27.676;2023-04-29T06:18:59;0.90;;;0.90;;
64678;SDS011;51094;53.864;27.676;2023-04-29T06:21:26;1.20;;;1.20;;
64678;SDS011;51094;53.864;27.676;2023-04-29T06:23:58;0.80;;;0.80;;
64678;SDS011;51094;53.864;27.676;2023-04-29T06:26:25;0.70;;;0.70;;
64678;SDS011;51094;53.864;27.676;2023-04-29T06:28:55;0.50;;;0.50;;
64678;SDS011;51094;53.864;27.676;2023-04-29T06:31:22;0.60;;;0.60;;
64678;SDS011;51094;53.864;27.676;2023-04-29T06:33:52;0.63;;;0.63;;
64678;SDS011;51094;53.864;27.676;2023-04-29T06:36:23;0.70;;;0.70;;
64678;SDS011;51094;53.864;27.676;2023-04-29T06:39:26;1.00;;;0.80;;
64678;SDS011;51094;53.864;27.676;2023-04-29T06:42:15;0.68;;;0.68;;
64678;SDS011;51094;53.864;27.676;2023-04-29T06:45:05;0.70;;;0.70;;
64678;SDS011;51094;53.864;27.676;2023-04-29T06:47:44;0.65;;;0.65;;
64678;SDS011;51094;53.864;27.676;2023-04-29T06:50:22;0.80;;;0.80;;
64678;SDS011;51094;53.864;27.676;2023-04-29T06:52:49;0.63;;;0.63;;
64678;SDS011;51094;53.864;27.676;2023-04-29T06:55:17;0.70;;;0.70;;
64678;SDS011;51094;53.864;27.676;2023-04-29T06:57:46;0.70;;;0.70;;
64678;SDS011;51094;53.864;27.676;2023-04-29T07:00:15;0.73;;;0.73;;
64678;SDS011;51094;53.864;27.676;2023-04-29T07:02:42;0.80;;;0.80;;
64678;SDS011;51094;53.864;27.676;2023-04-29T07:05:12;0.60;;;0.60;;
64678;SDS011;51094;53.864;27.676;2023-04-29T07:07:41;0.50;;;0.50;;
64678;SDS011;51094;53.864;27.676;2023-04-29T07:10:08;0.70;;;0.70;;
64678;SDS011;51094;53.864;27.676;2023-04-29T07:12:43;0.52;;;0.52;;
64678;SDS011;51094;53.864;27.676;2023-04-29T07:15:14;0.50;;;0.50;;
64678;SDS011;51094;53.864;27.676;2023-04-29T07:17:45;0.50;;;0.50;;
64678;SDS011;51094;53.864;27.676;2023-04-29T07:20:14;0.50;;;0.50;;
64678;SDS011;51094;53.864;27.676;2023-04-29T07:22:42;0.60;;;0.60;;
64678;SDS011;51094;53.864;27.676;2023-04-29T07:25:11;0.55;;;0.55;;
64678;SDS011;51094;53.864;27.676;2023-04-29T07:27:38;0.70;;;0.70;;
64678;SDS011;51094;53.864;27.676;2023-04-29T07:30:07;0.63;;;0.63;;
64678;SDS011;51094;53.864;27.676;2023-04-29T07:32:34;0.50;;;0.50;;
64678;SDS011;51094;53.864;27.676;2023-04-29T07:35:03;0.50;;;0.50;;
64678;SDS011;51094;53.864;27.676;2023-04-29T07:37:31;0.50;;;0.50;;
64678;SDS011;51094;53.864;27.676;2023-04-29T07:40:01;0.50;;;0.50;;
64678;SDS011;51094;53.864;27.676;2023-04-29T07:42:28;0.50;;;0.50;;
64678;SDS011;51094;53.864;27.676;2023-04-29T07:44:57;0.68;;;0.68;;
64678;SDS011;51094;53.864;27.676;2023-04-29T07:47:26;0.60;;;0.60;;
64678;SDS011;51094;53.864;27.676;2023-04-29T07:49:57;0.60;;;0.60;;
64678;SDS011;51094;53.864;27.676;2023-04-29T07:52:26;0.95;;;0.95;;
64678;SDS011;51094;53.864;27.676;2023-04-29T07:54:53;0.57;;;0.57;;
64678;SDS011;51094;53.864;27.676;2023-04-29T07:57:23;0.70;;;0.70;;
64678;SDS011;51094;53.864;27.676;2023-04-29T07:59:53;0.60;;;0.60;;
64678;SDS011;51094;53.864;27.676;2023-04-29T08:02:20;0.60;;;0.60;;
64678;SDS011;51094;53.864;27.676;2023-04-29T08:04:51;0.60;;;0.60;;
64678;SDS011;51094;53.864;27.676;2023-04-29T08:07:21;0.50;;;0.50;;
64678;SDS011;51094;53.864;27.676;2023-04-29T08:09:49;1.10;;;1.10;;
64678;SDS011;51094;53.864;27.676;2023-04-29T08:12:16;0.80;;;0.80;;
64678;SDS011;51094;53.864;27.676;2023-04-29T08:14:43;0.70;;;0.70;;
64678;SDS011;51094;53.864;27.676;2023-04-29T08:17:10;0.57;;;0.57;;
64678;SDS011;51094;53.864;27.676;2023-04-29T08:19:37;0.60;;;0.60;;
64678;SDS011;51094;53.864;27.676;2023-04-29T08:22:06;0.55;;;0.55;;
64678;SDS011;51094;53.864;27.676;2023-04-29T08:24:33;0.63;;;0.63;;
64678;SDS011;51094;53.864;27.676;2023-04-29T08:27:03;0.70;;;0.70;;
64678;SDS011;51094;53.864;27.676;2023-04-29T08:29:31;0.60;;;0.60;;
64678;SDS011;51094;53.864;27.676;2023-04-29T08:31:58;0.60;;;0.60;;
64678;SDS011;51094;53.864;27.676;2023-04-29T08:34:25;0.60;;;0.60;;
64678;SDS011;51094;53.864;27.676;2023-04-29T08:36:53;0.80;;;0.80;;
64678;SDS011;51094;53.864;27.676;2023-04-29T08:39:22;0.70;;;0.70;;
64678;SDS011;51094;53.864;27.676;2023-04-29T08:41:49;0.65;;;0.65;;
64678;SDS011;51094;53.864;27.676;2023-04-29T08:44:18;0.70;;;0.70;;
64678;SDS011;51094;53.864;27.676;2023-04-29T08:46:46;0.70;;;0.70;;
64678;SDS011;51094;53.864;27.676;2023-04-29T08:49:17;0.70;;;0.70;;
64678;SDS011;51094;53.864;27.676;2023-04-29T08:51:43;0.60;;;0.60;;
64678;SDS011;51094;53.864;27.676;2023-04-29T08:54:11;0.60;;;0.60;;
64678;SDS011;51094;53.864;27.676;2023-04-29T08:56:38;0.70;;;0.70;;
64678;SDS011;51094;53.864;27.676;2023-04-29T08:59:05;0.70;;;0.70;;
64678;SDS011;51094;53.864;27.676;2023-04-29T09:01:36;0.63;;;0.63;;
64678;SDS011;51094;53.864;27.676;2023-04-29T09:06:45;0.60;;;0.60;;
64678;SDS011;51094;53.864;27.676;2023-04-29T09:09:13;0.80;;;0.80;;
64678;SDS011;51094;53.864;27.676;2023-04-29T09:11:40;0.63;;;0.63;;
64678;SDS011;51094;53.864;27.676;2023-04-29T09:14:10;0.80;;;0.80;;
64678;SDS011;51094;53.864;27.676;2023-04-29T09:16:37;0.68;;;0.68;;
64678;SDS011;51094;53.864;27.676;2023-04-29T09:19:04;0.60;;;0.60;;
64678;SDS011;51094;53.864;27.676;2023-04-29T09:21:31;0.80;;;0.80;;
64678;SDS011;51094;53.864;27.676;2023-04-29T09:23:59;0.80;;;0.80;;
64678;SDS011;51094;53.864;27.676;2023-04-29T09:26:40;0.80;;;0.80;;
64678;SDS011;51094;53.864;27.676;2023-04-29T09:29:09;0.85;;;0.85;;
64678;SDS011;51094;53.864;27.676;2023-04-29T09:31:44;0.73;;;0.73;;
64678;SDS011;51094;53.864;27.676;2023-04-29T09:34:14;0.80;;;0.80;;
64678;SDS011;51094;53.864;27.676;2023-04-29T09:36:50;0.70;;;0.70;;
64678;SDS011;51094;53.864;27.676;2023-04-29T09:39:22;0.70;;;0.70;;
64678;SDS011;51094;53.864;27.676;2023-04-29T09:44:30;0.70;;;0.70;;
64678;SDS011;51094;53.864;27.676;2023-04-29T09:47:02;0.70;;;0.70;;
64678;SDS011;51094;53.864;27.676;2023-04-29T09:49:34;0.80;;;0.80;;
64678;SDS011;51094;53.864;27.676;2023-04-29T09:52:04;0.80;;;0.80;;
64678;SDS011;51094;53.864;27.676;2023-04-29T09:54:35;0.70;;;0.70;;
64678;SDS011;51094;53.864;27.676;2023-04-29T09:59:32;0.70;;;0.70;;
64678;SDS011;51094;53.864;27.676;2023-04-29T10:02:11;0.60;;;0.60;;
64678;SDS011;51094;53.864;27.676;2023-04-29T10:04:45;0.70;;;0.70;;
64678;SDS011;51094;53.864;27.676;2023-04-29T10:07:15;0.60;;;0.60;;
64678;SDS011;51094;53.864;27.676;2023-04-29T10:09:44;0.70;;;0.70;;
64678;SDS011;51094;53.864;27.676;2023-04-29T10:14:49;0.60;;;0.60;;
64678;SDS011;51094;53.864;27.676;2023-04-29T10:17:23;0.52;;;0.52;;
64678;SDS011;51094;53.864;27.676;2023-04-29T10:20:19;0.60;;;0.60;;
64678;SDS011;51094;53.864;27.676;2023-04-29T10:22:52;0.70;;;0.70;;
64678;SDS011;51094;53.864;27.676;2023-04-29T10:25:23;0.80;;;0.80;;
64678;SDS011;51094;53.864;27.676;2023-04-29T10:27:54;0.70;;;0.70;;
64678;SDS011;51094;53.864;27.676;2023-04-29T10:30:25;0.70;;;0.70;;
64678;SDS011;51094;53.864;27.676;2023-04-29T10:32:53;0.65;;;0.65;;
64678;SDS011;51094;53.864;27.676;2023-04-29T10:35:22;0.65;;;0.65;;
64678;SDS011;51094;53.864;27.676;2023-04-29T10:37:51;0.60;;;0.60;;
64678;SDS011;51094;53.864;27.676;2023-04-29T10:40:23;0.65;;;0.65;;
64678;SDS011;51094;53.864;27.676;2023-04-29T10:43:01;0.60;;;0.60;;
64678;SDS011;51094;53.864;27.676;2023-04-29T10:45:31;0.70;;;0.70;;
64678;SDS011;51094;53.864;27.676;2023-04-29T10:48:07;0.60;;;0.60;;
64678;SDS011;51094;53.864;27.676;2023-04-29T10:53:10;0.70;;;0.70;;
64678;SDS011;51094;53.864;27.676;2023-04-29T10:55:42;0.70;;;0.70;;
64678;SDS011;51094;53.864;27.676;2023-04-29T10:58:32;0.60;;;0.60;;
64678;SDS011;51094;53.864;27.676;2023-04-29T11:01:02;0.68;;;0.68;;
64678;SDS011;51094;53.864;27.676;2023-04-29T11:06:22;0.60;;;0.60;;
64678;SDS011;51094;53.864;27.676;2023-04-29T11:09:10;0.60;;;0.60;;
64678;SDS011;51094;53.864;27.676;2023-04-29T11:17:16;0.70;;;0.70;;
64678;SDS011;51094;53.864;27.676;2023-04-29T11:19:53;0.70;;;0.70;;
64678;SDS011;51094;53.864;27.676;2023-04-29T11:27:33;0.60;;;0.60;;
64678;SDS011;51094;53.864;27.676;2023-04-29T11:30:08;0.77;;;0.77;;
64678;SDS011;51094;53.864;27.676;2023-04-29T11:32:40;0.68;;;0.68;;
64678;SDS011;51094;53.864;27.676;2023-04-29T11:35:09;0.60;;;0.60;;
64678;SDS011;51094;53.864;27.676;2023-04-29T11:37:37;0.70;;;0.70;;
64678;SDS011;51094;53.864;27.676;2023-04-29T11:40:09;0.60;;;0.60;;
64678;SDS011;51094;53.864;27.676;2023-04-29T11:42:47;0.60;;;0.60;;
64678;SDS011;51094;53.864;27.676;2023-04-29T11:45:19;0.70;;;0.70;;
64678;SDS011;51094;53.864;27.676;2023-04-29T11:47:46;0.65;;;0.65;;
64678;SDS011;51094;53.864;27.676;2023-04-29T11:52:46;0.60;;;0.60;;
64678;SDS011;51094;53.864;27.676;2023-04-29T11:57:41;0.60;;;0.60;;
64678;SDS011;51094;53.864;27.676;2023-04-29T12:00:09;0.70;;;0.70;;
64678;SDS011;51094;53.864;27.676;2023-04-29T12:02:38;0.80;;;0.80;;
64678;SDS011;51094;53.864;27.676;2023-04-29T12:05:10;0.75;;;0.75;;
64678;SDS011;51094;53.864;27.676;2023-04-29T12:07:41;0.77;;;0.77;;
64678;SDS011;51094;53.864;27.676;2023-04-29T12:10:11;0.70;;;0.70;;
64678;SDS011;51094;53.864;27.676;2023-04-29T12:12:40;0.60;;;0.60;;
64678;SDS011;51094;53.864;27.676;2023-04-29T12:15:17;0.75;;;0.75;;
64678;SDS011;51094;53.864;27.676;2023-04-29T12:17:47;0.70;;;0.70;;
64678;SDS011;51094;53.864;27.676;2023-04-29T12:20:24;0.70;;;0.70;;
64678;SDS011;51094;53.864;27.676;2023-04-29T12:22:54;0.70;;;0.70;;
64678;SDS011;51094;53.864;27.676;2023-04-29T12:25:23;0.70;;;0.70;;
64678;SDS011;51094;53.864;27.676;2023-04-29T12:27:57;0.90;;;0.90;;
64678;SDS011;51094;53.864;27.676;2023-04-29T12:30:29;0.70;;;0.70;;
64678;SDS011;51094;53.864;27.676;2023-04-29T12:33:01;0.80;;;0.80;;
64678;SDS011;51094;53.864;27.676;2023-04-29T12:35:35;0.60;;;0.60;;
64678;SDS011;51094;53.864;27.676;2023-04-29T12:38:04;0.60;;;0.60;;
64678;SDS011;51094;53.864;27.676;2023-04-29T12:40:35;0.57;;;0.57;;
64678;SDS011;51094;53.864;27.676;2023-04-29T12:43:06;0.70;;;0.70;;
64678;SDS011;51094;53.864;27.676;2023-04-29T12:45:38;0.70;;;0.70;;
64678;SDS011;51094;53.864;27.676;2023-04-29T12:48:08;0.85;;;0.85;;
64678;SDS011;51094;53.864;27.676;2023-04-29T12:50:59;0.70;;;0.70;;
64678;SDS011;51094;53.864;27.676;2023-04-29T12:53:30;0.70;;;0.70;;
64678;SDS011;51094;53.864;27.676;2023-04-29T12:56:00;0.70;;;0.70;;
64678;SDS011;51094;53.864;27.676;2023-04-29T12:58:31;0.60;;;0.60;;
64678;SDS011;51094;53.864;27.676;2023-04-29T13:01:05;0.80;;;0.80;;
64678;SDS011;51094;53.864;27.676;2023-04-29T13:03:37;0.70;;;0.70;;
64678;SDS011;51094;53.864;27.676;2023-04-29T13:06:07;0.90;;;0.90;;
64678;SDS011;51094;53.864;27.676;2023-04-29T13:08:38;0.70;;;0.70;;
64678;SDS011;51094;53.864;27.676;2023-04-29T13:11:09;0.65;;;0.65;;
64678;SDS011;51094;53.864;27.676;2023-04-29T13:13:39;0.60;;;0.60;;
64678;SDS011;51094;53.864;27.676;2023-04-29T13:16:08;0.90;;;0.90;;
64678;SDS011;51094;53.864;27.676;2023-04-29T13:18:35;0.80;;;0.80;;
64678;SDS011;51094;53.864;27.676;2023-04-29T13:21:02;0.70;;;0.70;;
64678;SDS011;51094;53.864;27.676;2023-04-29T13:23:31;0.68;;;0.68;;
64678;SDS011;51094;53.864;27.676;2023-04-29T13:25:58;0.80;;;0.80;;
64678;SDS011;51094;53.864;27.676;2023-04-29T13:28:28;0.80;;;0.80;;
64678;SDS011;51094;53.864;27.676;2023-04-29T13:30:57;0.80;;;0.80;;
64678;SDS011;51094;53.864;27.676;2023-04-29T13:33:31;0.80;;;0.80;;
64678;SDS011;51094;53.864;27.676;2023-04-29T13:35:58;0.80;;;0.80;;
64678;SDS011;51094;53.864;27.676;2023-04-29T13:38:30;0.80;;;0.80;;
64678;SDS011;51094;53.864;27.676;2023-04-29T13:41:02;0.70;;;0.70;;
64678;SDS011;51094;53.864;27.676;2023-04-29T13:43:35;0.60;;;0.60;;
64678;SDS011;51094;53.864;27.676;2023-04-29T13:46:06;0.60;;;0.60;;
64678;SDS011;51094;53.864;27.676;2023-04-29T13:48:34;0.80;;;0.80;;
64678;SDS011;51094;53.864;27.676;2023-04-29T13:51:21;0.85;;;0.85;;
64678;SDS011;51094;53.864;27.676;2023-04-29T13:54:12;0.68;;;0.68;;
64678;SDS011;51094;53.864;27.676;2023-04-29T13:56:50;0.65;;;0.65;;
64678;SDS011;51094;53.864;27.676;2023-04-29T13:59:19;0.68;;;0.68;;
64678;SDS011;51094;53.864;27.676;2023-04-29T14:02:06;0.60;;;0.60;;
64678;SDS011;51094;53.864;27.676;2023-04-29T14:04:52;0.80;;;0.80;;
64678;SDS011;51094;53.864;27.676;2023-04-29T14:07:24;0.60;;;0.60;;
64678;SDS011;51094;53.864;27.676;2023-04-29T14:09:54;0.63;;;0.63;;
64678;SDS011;51094;53.864;27.676;2023-04-29T14:12:23;0.73;;;0.73;;
64678;SDS011;51094;53.864;27.676;2023-04-29T14:14:50;0.70;;;0.70;;
64678;SDS011;51094;53.864;27.676;2023-04-29T14:17:23;0.68;;;0.68;;
64678;SDS011;51094;53.864;27.676;2023-04-29T14:19:53;0.80;;;0.80;;
64678;SDS011;51094;53.864;27.676;2023-04-29T14:22:20;0.80;;;0.80;;
64678;SDS011;51094;53.864;27.676;2023-04-29T14:24:48;0.80;;;0.80;;
64678;SDS011;51094;53.864;27.676;2023-04-29T14:27:15;0.70;;;0.70;;
64678;SDS011;51094;53.864;27.676;2023-04-29T14:29:42;0.70;;;0.70;;
64678;SDS011;51094;53.864;27.676;2023-04-29T14:32:08;0.65;;;0.65;;
64678;SDS011;51094;53.864;27.676;2023-04-29T14:34:43;0.68;;;0.68;;
64678;SDS011;51094;53.864;27.676;2023-04-29T14:37:13;0.80;;;0.80;;
64678;SDS011;51094;53.864;27.676;2023-04-29T14:39:40;0.70;;;0.70;;
64678;SDS011;51094;53.864;27.676;2023-04-29T14:42:09;0.50;;;0.50;;
64678;SDS011;51094;53.864;27.676;2023-04-29T14:44:36;0.70;;;0.70;;
64678;SDS011;51094;53.864;27.676;2023-04-29T14:47:03;0.70;;;0.70;;
64678;SDS011;51094;53.864;27.676;2023-04-29T14:49:32;0.60;;;0.60;;
64678;SDS011;51094;53.864;27.676;2023-04-29T14:51:59;0.60;;;0.60;;
64678;SDS011;51094;53.864;27.676;2023-04-29T14:56:57;0.60;;;0.60;;
64678;SDS011;51094;53.864;27.676;2023-04-29T14:59:24;0.60;;;0.60;;
64678;SDS011;51094;53.864;27.676;2023-04-29T15:01:53;0.70;;;0.70;;
64678;SDS011;51094;53.864;27.676;2023-04-29T15:04:23;0.70;;;0.70;;
64678;SDS011;51094;53.864;27.676;2023-04-29T15:06:49;0.73;;;0.73;;
64678;SDS011;51094;53.864;27.676;2023-04-29T15:09:17;0.70;;;0.70;;
64678;SDS011;51094;53.864;27.676;2023-04-29T15:11:50;0.85;;;0.85;;
64678;SDS011;51094;53.864;27.676;2023-04-29T15:14:21;0.80;;;0.80;;
64678;SDS011;51094;53.864;27.676;2023-04-29T15:16:50;0.65;;;0.65;;
64678;SDS011;51094;53.864;27.676;2023-04-29T15:19:19;0.70;;;0.70;;
64678;SDS011;51094;53.864;27.676;2023-04-29T15:21:48;0.70;;;0.70;;
64678;SDS011;51094;53.864;27.676;2023-04-29T15:24:15;0.70;;;0.70;;
64678;SDS011;51094;53.864;27.676;2023-04-29T15:26:42;0.80;;;0.80;;
64678;SDS011;51094;53.864;27.676;2023-04-29T15:29:10;0.77;;;0.77;;
64678;SDS011;51094;53.864;27.676;2023-04-29T15:31:38;0.80;;;0.80;;
64678;SDS011;51094;53.864;27.676;2023-04-29T15:34:05;0.77;;;0.77;;
64678;SDS011;51094;53.864;27.676;2023-04-29T15:36:34;0.70;;;0.70;;
64678;SDS011;51094;53.864;27.676;2023-04-29T15:39:01;1.00;;;1.00;;